Time;durP1;ratioP1;P1;durP2;ratioP2;P2;SDS_P1;SDS_P2;PMS_P1;PMS_P2;Temp;Humidity;BMP_temperature;BMP_pressure;BME280_temperature;BME280_humidity;BME280_pressure;Samples;Min_cycle;Max_cycle;Signal;HPM_P1;HPM_P2
2022/04/28 00:00:32;;;;;;;13.90;12.45;;;10.00;99.90;;;;;;5093235;28;20212;-66
2022/04/28 00:02:59;;;;;;;14.45;12.55;;;10.00;99.90;;;;;;5094316;28;20260;-67
2022/04/28 00:05:26;;;;;;;13.35;12.05;;;10.00;99.90;;;;;;5094274;28;20210;-68
2022/04/28 00:07:53;;;;;;;15.23;12.70;;;10.00;99.90;;;;;;5095111;28;20194;-66
2022/04/28 00:10:21;;;;;;;14.57;13.00;;;10.10;99.90;;;;;;5095662;28;20198;-67
2022/04/28 00:12:48;;;;;;;13.55;12.25;;;10.00;99.90;;;;;;5095631;28;20293;-66
2022/04/28 00:15:15;;;;;;;14.73;13.07;;;10.00;99.90;;;;;;5095316;28;20226;-67
2022/04/28 00:17:42;;;;;;;14.13;12.73;;;10.00;99.90;;;;;;5095547;28;20209;-67
2022/04/28 00:20:10;;;;;;;14.85;13.25;;;9.90;99.90;;;;;;5095463;28;20625;-67
2022/04/28 00:22:37;;;;;;;14.13;12.60;;;9.90;99.90;;;;;;5095392;28;20199;-66
2022/04/28 00:25:05;;;;;;;15.45;13.40;;;9.90;99.90;;;;;;5095209;28;20215;-66
2022/04/28 00:27:34;;;;;;;14.23;12.73;;;9.80;99.90;;;;;;5095317;28;20202;-66
2022/04/28 00:30:00;;;;;;;15.88;13.65;;;9.80;99.90;;;;;;5095105;28;20217;-66
2022/04/28 00:32:27;;;;;;;14.98;13.38;;;9.70;99.90;;;;;;5095228;28;20247;-66
2022/04/28 00:34:54;;;;;;;14.95;12.65;;;9.80;99.90;;;;;;5094610;28;20226;-68
2022/04/28 00:37:21;;;;;;;15.23;13.18;;;9.90;99.90;;;;;;5095134;28;20621;-66
2022/04/28 00:39:48;;;;;;;14.52;13.13;;;9.80;99.90;;;;;;5094903;28;20208;-66
2022/04/28 00:42:17;;;;;;;14.13;12.60;;;9.90;99.90;;;;;;5095053;28;20198;-66
2022/04/28 00:44:46;;;;;;;14.43;12.85;;;9.90;99.90;;;;;;5094894;28;20245;-66
2022/04/28 00:47:13;;;;;;;14.90;13.30;;;9.90;99.90;;;;;;5095001;28;20627;-66
2022/04/28 00:52:25;;;;;;;14.95;13.15;;;9.90;99.90;;;;;;5094955;28;20204;-66
2022/04/28 00:54:54;;;;;;;15.15;13.55;;;9.80;99.90;;;;;;5094240;28;20222;-66
2022/04/28 00:57:21;;;;;;;15.02;13.40;;;9.70;99.90;;;;;;5094596;28;20202;-67
2022/04/28 00:59:50;;;;;;;14.40;12.90;;;9.70;99.90;;;;;;5094708;28;20202;-66
2022/04/28 01:02:18;;;;;;;14.70;12.50;;;9.60;99.90;;;;;;5094601;28;20288;-66
2022/04/28 01:04:46;;;;;;;13.98;12.55;;;9.60;99.90;;;;;;5094540;28;20582;-66
2022/04/28 01:07:13;;;;;;;15.27;12.90;;;9.50;99.90;;;;;;5094453;28;20209;-68
2022/04/28 01:09:41;;;;;;;15.88;13.48;;;9.50;99.90;;;;;;5094524;28;20628;-68
2022/04/28 01:12:09;;;;;;;17.40;14.32;;;9.50;99.90;;;;;;5094269;28;20206;-66
2022/04/28 01:14:36;;;;;;;16.20;14.05;;;9.50;99.90;;;;;;5094000;28;20244;-66
2022/04/28 01:17:04;;;;;;;15.75;14.15;;;9.50;99.90;;;;;;5094440;28;20201;-66
2022/04/28 01:19:31;;;;;;;15.30;13.70;;;9.60;99.90;;;;;;5094120;28;20682;-66
2022/04/28 01:21:59;;;;;;;16.00;14.30;;;9.50;99.90;;;;;;5094331;28;20206;-66
2022/04/28 01:24:26;;;;;;;16.55;13.93;;;9.40;99.90;;;;;;5093915;28;20657;-66
2022/04/28 01:26:55;;;;;;;17.20;14.55;;;9.50;99.90;;;;;;5093953;28;20292;-66
2022/04/28 01:29:22;;;;;;;16.90;14.35;;;9.50;99.90;;;;;;5094071;28;20224;-66
2022/04/28 01:31:50;;;;;;;17.45;14.85;;;9.50;99.90;;;;;;5094182;28;20575;-66
2022/04/28 01:34:16;;;;;;;16.90;15.10;;;9.50;99.90;;;;;;5093852;28;20312;-66
2022/04/28 01:36:43;;;;;;;17.73;15.52;;;9.40;99.90;;;;;;5094160;28;20201;-66
2022/04/28 01:39:12;;;;;;;20.20;16.30;;;9.40;99.90;;;;;;5094083;28;20293;-66
2022/04/28 01:41:39;;;;;;;16.13;14.30;;;9.20;99.90;;;;;;5093951;28;20296;-66
2022/04/28 01:44:06;;;;;;;15.48;13.43;;;9.20;99.90;;;;;;5093546;28;20723;-66
2022/04/28 01:46:32;;;;;;;17.73;14.45;;;9.30;99.90;;;;;;5093987;28;20198;-66
2022/04/28 01:48:59;;;;;;;16.85;14.80;;;9.20;99.90;;;;;;5093988;28;20204;-66
2022/04/28 01:56:56;;;;;;;16.85;15.05;;;9.20;99.90;;;;;;5093962;28;20216;-66
2022/04/28 01:59:23;;;;;;;16.48;14.10;;;9.20;99.90;;;;;;5093846;28;20229;-66
2022/04/28 02:01:50;;;;;;;16.02;14.05;;;9.20;99.90;;;;;;5093823;28;20202;-66
2022/04/28 02:04:17;;;;;;;15.25;13.65;;;9.20;99.90;;;;;;5093314;28;20228;-66
2022/04/28 02:06:43;;;;;;;15.25;13.18;;;9.20;99.90;;;;;;5093782;28;20608;-66
2022/04/28 02:09:12;;;;;;;14.93;13.38;;;9.20;99.90;;;;;;5093712;28;20297;-66
2022/04/28 02:11:39;;;;;;;16.58;13.63;;;9.20;99.90;;;;;;5093683;28;20202;-66
2022/04/28 02:14:06;;;;;;;16.30;13.00;;;9.20;99.90;;;;;;5093108;28;20711;-66
2022/04/28 02:16:33;;;;;;;16.45;14.15;;;9.20;99.90;;;;;;5093324;28;20679;-66
2022/04/28 02:18:59;;;;;;;16.30;13.40;;;9.20;99.90;;;;;;5093622;28;20209;-67
2022/04/28 02:21:27;;;;;;;15.98;14.20;;;9.20;99.90;;;;;;5093383;28;20301;-66
2022/04/28 02:23:53;;;;;;;17.48;13.93;;;9.20;99.90;;;;;;5094884;28;20730;-66
2022/04/28 02:26:21;;;;;;;17.33;14.10;;;9.20;99.90;;;;;;5097738;28;20198;-66
2022/04/28 02:28:48;;;;;;;15.48;13.77;;;9.20;99.90;;;;;;5097289;28;20205;-66
2022/04/28 02:31:15;;;;;;;18.73;13.57;;;9.20;99.90;;;;;;5097432;28;20202;-66
2022/04/28 02:33:42;;;;;;;15.63;13.90;;;9.20;99.90;;;;;;5097349;28;20637;-67
2022/04/28 02:36:09;;;;;;;16.40;13.45;;;9.10;99.90;;;;;;5097449;28;20313;-66
2022/04/28 02:38:36;;;;;;;17.80;12.93;;;9.10;99.90;;;;;;5097298;28;20668;-67
2022/04/28 02:41:02;;;;;;;15.52;13.10;;;9.10;99.90;;;;;;5097470;28;20205;-66
2022/04/28 02:43:31;;;;;;;16.83;13.77;;;9.00;99.90;;;;;;5097235;28;20759;-66
2022/04/28 02:45:58;;;;;;;16.92;13.70;;;8.90;99.90;;;;;;5097384;28;20194;-66
2022/04/28 02:48:25;;;;;;;18.60;14.70;;;8.90;99.90;;;;;;5097286;28;20202;-66
2022/04/28 02:50:53;;;;;;;17.48;14.55;;;8.80;99.90;;;;;;5097215;28;20197;-66
2022/04/28 02:53:20;;;;;;;18.40;14.90;;;8.70;99.90;;;;;;5096856;28;20202;-66
2022/04/28 02:55:47;;;;;;;17.50;15.20;;;8.70;99.90;;;;;;5097154;28;20222;-66
2022/04/28 02:58:13;;;;;;;16.38;14.30;;;8.60;99.90;;;;;;5097122;28;20202;-66
2022/04/28 03:00:41;;;;;;;17.63;15.07;;;8.60;99.90;;;;;;5096974;28;20202;-66
2022/04/28 03:03:09;;;;;;;15.27;13.45;;;8.50;99.90;;;;;;5096704;28;20297;-66
2022/04/28 03:10:46;;;;;;;16.05;13.57;;;8.60;99.90;;;;;;5096692;28;20202;-66
2022/04/28 03:11:09;;;;;;;16.58;14.50;;;8.50;99.90;;;;;;5096738;28;20327;-67
2022/04/28 03:13:36;;;;;;;16.00;13.82;;;8.60;99.90;;;;;;5096658;28;20579;-66
2022/04/28 03:16:05;;;;;;;17.33;13.95;;;8.60;99.90;;;;;;5096653;28;20232;-66
2022/04/28 03:18:32;;;;;;;18.70;15.63;;;8.50;99.90;;;;;;5096810;28;20621;-66
2022/04/28 03:20:58;;;;;;;19.20;15.90;;;8.40;99.90;;;;;;5096722;28;20208;-66
2022/04/28 03:23:25;;;;;;;19.48;15.65;;;8.40;99.90;;;;;;5096380;28;20682;-66
2022/04/28 03:25:52;;;;;;;17.27;15.00;;;8.40;99.90;;;;;;5096572;28;20203;-66
2022/04/28 03:28:19;;;;;;;18.10;15.18;;;8.40;99.90;;;;;;5096470;28;20252;-67
2022/04/28 03:30:47;;;;;;;18.35;15.73;;;8.50;99.90;;;;;;5096297;28;20202;-66
2022/04/28 03:33:16;;;;;;;19.45;15.63;;;8.50;99.90;;;;;;5096063;28;20255;-66
2022/04/28 03:35:43;;;;;;;16.70;14.90;;;8.50;99.90;;;;;;5096319;28;20232;-66
2022/04/28 03:38:12;;;;;;;19.65;15.93;;;8.50;99.90;;;;;;5096347;28;20212;-66
2022/04/28 03:40:39;;;;;;;21.13;16.83;;;8.40;99.90;;;;;;5096316;28;20965;-66
2022/04/28 03:43:06;;;;;;;20.02;16.65;;;8.20;99.90;;;;;;5096061;28;20690;-67
2022/04/28 03:45:33;;;;;;;18.13;15.90;;;8.20;99.90;;;;;;5096324;28;20202;-66
2022/04/28 03:48:00;;;;;;;19.48;15.60;;;8.20;99.90;;;;;;5096262;28;20198;-66
2022/04/28 03:50:29;;;;;;;17.73;14.45;;;8.20;99.90;;;;;;5096042;28;20198;-66
2022/04/28 03:52:55;;;;;;;18.58;14.88;;;8.30;99.90;;;;;;5095951;28;20229;-67
2022/04/28 03:55:22;;;;;;;19.45;15.05;;;8.40;99.90;;;;;;5095450;28;20228;-66
2022/04/28 03:57:49;;;;;;;17.55;15.05;;;8.50;99.90;;;;;;5095817;28;20205;-66
2022/04/28 04:00:17;;;;;;;20.98;16.08;;;8.40;99.90;;;;;;5095777;28;20202;-66
2022/04/28 04:02:44;;;;;;;19.98;16.42;;;8.30;99.90;;;;;;5095878;28;20205;-68
2022/04/28 04:05:11;;;;;;;21.00;15.80;;;8.20;99.90;;;;;;5095395;28;20218;-66
2022/04/28 04:07:39;;;;;;;19.48;15.90;;;8.20;99.90;;;;;;5095768;28;20205;-66
2022/04/28 04:10:07;;;;;;;19.65;15.05;;;8.10;99.90;;;;;;5095859;28;20252;-66
2022/04/28 04:12:34;;;;;;;19.30;15.65;;;8.10;99.90;;;;;;5095770;28;20202;-66
2022/04/28 04:15:01;;;;;;;19.98;16.58;;;7.90;99.90;;;;;;5095500;28;20248;-68
2022/04/28 04:17:28;;;;;;;17.85;15.05;;;8.00;99.90;;;;;;5095688;28;20296;-68
2022/04/28 04:19:54;;;;;;;21.33;15.70;;;8.00;99.90;;;;;;5095615;28;20209;-68
2022/04/28 04:22:21;;;;;;;19.52;15.80;;;8.10;99.90;;;;;;5096016;28;20206;-68
2022/04/28 04:24:49;;;;;;;20.75;15.57;;;8.10;99.90;;;;;;5095572;28;20222;-66
2022/04/28 04:27:16;;;;;;;17.48;14.68;;;8.10;99.90;;;;;;5095618;28;20202;-65
2022/04/28 04:29:43;;;;;;;20.25;15.27;;;8.20;99.90;;;;;;5095171;28;20216;-66
2022/04/28 04:32:17;;;;;;;18.15;16.23;;;8.10;99.90;;;;;;5095532;28;20297;-68
2022/04/28 04:34:44;;;;;;;16.88;15.00;;;8.10;99.90;;;;;;5094852;28;20274;-68
2022/04/28 04:37:11;;;;;;;19.50;16.10;;;8.20;99.90;;;;;;5095244;28;20249;-68
2022/04/28 04:39:38;;;;;;;17.73;15.57;;;8.20;99.90;;;;;;5095201;28;20198;-68
2022/04/28 04:42:07;;;;;;;18.77;15.45;;;8.30;99.90;;;;;;5095193;28;20202;-68
2022/04/28 04:44:34;;;;;;;18.75;15.65;;;8.30;99.90;;;;;;5094667;28;20233;-68
2022/04/28 04:47:01;;;;;;;18.40;16.35;;;8.40;99.90;;;;;;5094630;28;20198;-68
2022/04/28 04:49:28;;;;;;;18.75;15.65;;;8.30;99.90;;;;;;5095060;28;20198;-68
2022/04/28 04:51:55;;;;;;;20.20;18.00;;;8.30;99.90;;;;;;5095179;28;20222;-68
2022/04/28 04:54:21;;;;;;;19.63;16.58;;;8.30;99.90;;;;;;5094766;28;20224;-68
2022/04/28 04:56:48;;;;;;;20.83;16.73;;;8.30;99.90;;;;;;5094793;28;20225;-68
2022/04/28 04:59:16;;;;;;;20.30;17.17;;;8.30;99.90;;;;;;5094886;28;20293;-68
2022/04/28 05:01:43;;;;;;;21.13;17.65;;;8.30;99.90;;;;;;5094786;28;20205;-68
2022/04/28 05:04:10;;;;;;;22.05;17.92;;;8.40;99.90;;;;;;5094261;28;20225;-68
2022/04/28 05:06:37;;;;;;;19.92;16.70;;;8.40;99.90;;;;;;5094716;28;20634;-68
2022/04/28 05:09:04;;;;;;;23.10;18.52;;;8.50;99.90;;;;;;5094696;28;20293;-68
2022/04/28 05:11:30;;;;;;;22.33;17.35;;;8.50;99.90;;;;;;5094643;28;20198;-68
2022/04/28 05:13:57;;;;;;;22.88;17.20;;;8.50;99.90;;;;;;5094616;28;20225;-68
2022/04/28 05:16:25;;;;;;;20.10;17.02;;;8.50;99.90;;;;;;5094457;28;20230;-68
2022/04/28 05:18:52;;;;;;;21.70;18.52;;;8.40;99.90;;;;;;5094419;28;20201;-68
2022/04/28 05:21:19;;;;;;;21.60;19.27;;;8.40;99.90;;;;;;5094129;28;20213;-68
2022/04/28 05:23:46;;;;;;;22.25;17.95;;;8.50;99.90;;;;;;5094047;28;20317;-66
2022/04/28 05:26:12;;;;;;;24.73;18.90;;;8.50;99.90;;;;;;5094389;28;20197;-66
2022/04/28 05:28:39;;;;;;;26.23;20.45;;;8.30;99.90;;;;;;5094165;28;20556;-68
2022/04/28 05:31:06;;;;;;;21.50;18.50;;;8.30;99.90;;;;;;5094275;28;20202;-68
2022/04/28 05:33:34;;;;;;;24.70;19.98;;;8.40;99.90;;;;;;5093756;28;20308;-68
2022/04/28 05:36:02;;;;;;;25.60;19.50;;;8.40;99.90;;;;;;5094231;28;20217;-68
2022/04/28 05:38:29;;;;;;;21.98;18.55;;;8.50;99.90;;;;;;5094162;28;20209;-68
2022/04/28 05:40:57;;;;;;;21.63;18.08;;;8.50;99.90;;;;;;5094108;28;20206;-68
2022/04/28 05:46:08;;;;;;;24.90;19.73;;;8.50;99.90;;;;;;5094142;28;20192;-68
2022/04/28 05:48:36;;;;;;;25.70;20.02;;;8.60;99.90;;;;;;5094065;28;20602;-68
2022/04/28 05:51:03;;;;;;;24.27;19.27;;;8.60;99.90;;;;;;5093973;28;20660;-68
2022/04/28 05:53:30;;;;;;;23.40;20.10;;;8.70;99.90;;;;;;5093715;28;20228;-68
2022/04/28 05:55:57;;;;;;;21.33;18.80;;;8.80;99.90;;;;;;5093966;28;20226;-68
2022/04/28 05:58:23;;;;;;;23.23;18.52;;;8.80;99.90;;;;;;5092756;28;20202;-69
2022/04/28 06:00:50;;;;;;;21.40;18.92;;;8.90;99.90;;;;;;5093841;28;20289;-68
2022/04/28 06:03:17;;;;;;;23.02;19.15;;;8.90;99.90;;;;;;5093511;28;20198;-68
2022/04/28 06:05:45;;;;;;;23.38;19.00;;;8.90;99.90;;;;;;5093855;28;20285;-68
2022/04/28 06:08:12;;;;;;;23.10;20.40;;;8.90;99.90;;;;;;5093687;28;20229;-68
2022/04/28 06:10:39;;;;;;;24.02;20.58;;;9.00;99.90;;;;;;5094131;28;20249;-68
2022/04/28 06:13:06;;;;;;;26.00;20.13;;;8.90;99.90;;;;;;5093417;28;20293;-69
2022/04/28 06:15:33;;;;;;;22.63;19.13;;;8.90;99.90;;;;;;5093664;28;20261;-68
2022/04/28 06:18:00;;;;;;;24.17;19.75;;;8.90;99.90;;;;;;5093614;28;20285;-68
2022/04/28 06:20:27;;;;;;;25.40;19.25;;;9.00;99.90;;;;;;5093667;28;20208;-68
2022/04/28 06:22:55;;;;;;;22.75;19.40;;;9.10;99.90;;;;;;5093566;28;20202;-69
2022/04/28 06:25:23;;;;;;;21.73;18.58;;;9.20;99.90;;;;;;5093466;28;20226;-68
2022/04/28 06:27:50;;;;;;;23.50;19.27;;;9.40;99.90;;;;;;5093525;28;20609;-68
2022/04/28 06:30:17;;;;;;;23.88;17.70;;;9.40;99.90;;;;;;5093319;28;20210;-68
2022/04/28 06:32:44;;;;;;;24.27;19.10;;;9.60;99.90;;;;;;5093372;28;20721;-68
2022/04/28 06:35:11;;;;;;;25.58;18.75;;;9.70;99.90;;;;;;5093287;28;20228;-69
2022/04/28 06:37:39;;;;;;;24.25;18.83;;;9.70;99.90;;;;;;5093395;28;20225;-68
2022/04/28 06:40:11;;;;;;;23.92;19.35;;;9.70;99.90;;;;;;5093431;28;20297;-68
2022/04/28 06:42:41;;;;;;;21.40;19.08;;;9.80;99.90;;;;;;5093699;28;20673;-68
2022/04/28 06:45:09;;;;;;;22.30;19.90;;;9.90;99.90;;;;;;5093279;28;20230;-68
2022/04/28 06:47:35;;;;;;;20.63;18.42;;;9.90;99.90;;;;;;5093422;28;20221;-68
2022/04/28 06:50:02;;;;;;;23.52;19.33;;;9.80;99.90;;;;;;5093284;28;20204;-68
2022/04/28 06:52:29;;;;;;;25.05;19.25;;;9.70;99.90;;;;;;5093474;28;20208;-68
2022/04/28 06:54:56;;;;;;;23.10;18.75;;;9.60;99.90;;;;;;5093116;28;20253;-68
2022/04/28 06:57:24;;;;;;;22.50;19.88;;;9.70;99.90;;;;;;5093469;28;20222;-68
2022/04/28 06:59:51;;;;;;;22.05;19.75;;;9.80;99.90;;;;;;5093277;28;20576;-68
2022/04/28 07:02:20;;;;;;;21.70;17.50;;;9.90;99.90;;;;;;5093243;28;20288;-69
2022/04/28 07:04:47;;;;;;;20.27;17.08;;;9.90;99.90;;;;;;5092742;28;20704;-68
2022/04/28 07:07:14;;;;;;;19.48;16.83;;;10.10;99.90;;;;;;5092963;28;20202;-68
2022/04/28 07:09:40;;;;;;;19.92;17.45;;;10.10;99.90;;;;;;5094633;28;20212;-69
2022/04/28 07:12:08;;;;;;;20.17;17.52;;;10.00;99.90;;;;;;5096746;28;20638;-68
2022/04/28 07:14:36;;;;;;;17.83;15.95;;;10.10;99.90;;;;;;5096383;28;20309;-68
2022/04/28 07:17:04;;;;;;;20.75;16.55;;;10.10;99.90;;;;;;5096687;28;20308;-68
2022/04/28 07:19:30;;;;;;;19.13;16.35;;;10.10;99.90;;;;;;5096542;28;20694;-68
2022/04/28 07:21:58;;;;;;;18.02;16.13;;;10.20;99.90;;;;;;5096686;28;20292;-69
2022/04/28 07:24:26;;;;;;;18.15;16.25;;;10.30;99.90;;;;;;5096497;28;20312;-68
2022/04/28 07:26:52;;;;;;;19.25;16.75;;;10.20;99.90;;;;;;5096476;28;20292;-68
2022/04/28 07:29:19;;;;;;;23.90;16.70;;;10.30;99.90;;;;;;5096543;28;20694;-68
2022/04/28 07:31:47;;;;;;;18.70;16.77;;;10.40;99.90;;;;;;5096459;28;20732;-68
2022/04/28 07:34:14;;;;;;;17.38;15.57;;;10.50;99.90;;;;;;5096233;28;20645;-68
2022/04/28 07:36:41;;;;;;;18.15;15.10;;;10.60;99.90;;;;;;5096330;28;20317;-69
2022/04/28 07:39:08;;;;;;;19.83;16.15;;;10.70;99.90;;;;;;5096378;28;20230;-68
2022/04/28 07:41:35;;;;;;;15.75;14.07;;;10.70;99.90;;;;;;5096240;28;20212;-68
2022/04/28 07:44:01;;;;;;;15.80;14.05;;;10.80;99.90;;;;;;5095847;28;20222;-69
2022/04/28 07:46:28;;;;;;;14.70;12.88;;;11.00;99.90;;;;;;5095985;28;20204;-69
2022/04/28 07:48:56;;;;;;;13.95;12.55;;;11.00;99.90;;;;;;5096169;28;20209;-68
2022/04/28 07:51:23;;;;;;;15.60;13.40;;;11.10;99.90;;;;;;5096129;28;20202;-68
2022/04/28 07:53:50;;;;;;;15.38;13.18;;;11.30;99.90;;;;;;5095767;28;20248;-65
2022/04/28 07:56:20;;;;;;;15.73;14.13;;;11.50;99.90;;;;;;5095672;28;20218;-68
2022/04/28 07:58:47;;;;;;;15.98;14.35;;;11.70;99.90;;;;;;5095946;28;20206;-68
2022/04/28 08:01:14;;;;;;;16.10;13.93;;;11.70;99.90;;;;;;5095932;28;20259;-68
2022/04/28 08:03:42;;;;;;;14.43;12.95;;;11.90;99.90;;;;;;5095472;28;20711;-68
2022/04/28 08:06:13;;;;;;;13.25;11.95;;;12.10;99.90;;;;;;5095939;28;20281;-69
2022/04/28 08:08:40;;;;;;;13.13;11.93;;;12.40;99.90;;;;;;5092596;28;20285;-68
2022/04/28 08:11:08;;;;;;;12.73;11.52;;;13.50;99.90;;;;;;5094504;28;20555;-69
2022/04/28 08:13:35;;;;;;;12.05;10.85;;;15.60;99.90;;;;;;5094071;28;20229;-69
2022/04/28 08:16:02;;;;;;;12.27;11.07;;;16.50;98.70;;;;;;5094269;28;20475;-66
2022/04/28 08:18:30;;;;;;;18.38;16.63;;;17.10;96.60;;;;;;5094057;28;20201;-67
2022/04/28 08:20:58;;;;;;;11.40;10.40;;;17.10;94.80;;;;;;5093144;28;20245;-66
2022/04/28 08:23:26;;;;;;;11.30;10.20;;;16.90;94.30;;;;;;5093633;28;20226;-67
2022/04/28 08:25:53;;;;;;;9.88;8.90;;;16.50;95.10;;;;;;5094149;28;20255;-66
2022/04/28 08:28:20;;;;;;;9.88;8.88;;;16.20;94.90;;;;;;5093746;28;20659;-67
2022/04/28 08:30:47;;;;;;;9.32;8.52;;;16.10;95.10;;;;;;5093947;28;20574;-65
2022/04/28 08:33:14;;;;;;;8.52;7.72;;;15.80;95.50;;;;;;5093721;28;20215;-66
2022/04/28 08:35:41;;;;;;;9.05;8.25;;;15.60;95.90;;;;;;5093934;28;20208;-65
2022/04/28 08:38:07;;;;;;;9.73;8.68;;;15.50;96.90;;;;;;5093654;28;20250;-66
2022/04/28 08:40:36;;;;;;;9.32;8.57;;;15.40;96.40;;;;;;5093626;28;20204;-66
2022/04/28 08:43:05;;;;;;;8.98;8.05;;;15.20;96.10;;;;;;5093268;28;20582;-66
2022/04/28 08:45:38;;;;;;;8.45;7.75;;;15.20;96.50;;;;;;5093844;28;20213;-66
2022/04/28 08:48:07;;;;;;;7.93;7.13;;;15.20;96.40;;;;;;5093691;28;20579;-65
2022/04/28 08:50:34;;;;;;;8.50;7.65;;;15.40;96.10;;;;;;5093325;28;20693;-66
2022/04/28 08:53:04;;;;;;;8.02;7.43;;;16.00;94.90;;;;;;5092985;28;20607;-65
2022/04/28 08:55:31;;;;;;;7.60;7.00;;;16.50;92.30;;;;;;5093689;28;20575;-66
2022/04/28 08:57:59;;;;;;;7.88;7.13;;;16.60;92.40;;;;;;5093470;28;20228;-65
2022/04/28 09:00:26;;;;;;;6.80;6.20;;;16.50;91.40;;;;;;5093420;28;20206;-67
2022/04/28 09:02:53;;;;;;;6.70;6.10;;;16.70;88.40;;;;;;5093185;28;20288;-68
2022/04/28 09:05:20;;;;;;;5.90;5.50;;;17.40;85.60;;;;;;5092941;28;20222;-68
2022/04/28 09:07:48;;;;;;;5.60;5.20;;;19.20;81.10;;;;;;5093223;28;20207;-69
2022/04/28 09:10:30;;;;;;;10.20;6.00;;;20.80;70.70;;;;;;5093330;28;20451;-69
2022/04/28 09:14:08;;;;;;;6.63;6.13;;;22.00;62.40;;;;;;5093000;28;20442;-70
2022/04/28 09:15:48;;;;;;;6.73;6.03;;;23.60;57.60;;;;;;5092658;28;20994;-68
2022/04/28 09:18:16;;;;;;;6.20;5.63;;;24.20;56.60;;;;;;5093084;28;20476;-68
2022/04/28 09:20:43;;;;;;;6.23;5.83;;;24.50;56.60;;;;;;5092814;28;20452;-67
2022/04/28 09:23:11;;;;;;;5.50;5.10;;;23.90;55.60;;;;;;5092614;28;20820;-66
2022/04/28 09:25:39;;;;;;;6.00;5.60;;;23.00;58.60;;;;;;5092834;28;20442;-67
2022/04/28 09:28:10;;;;;;;6.20;5.70;;;22.80;57.60;;;;;;5092577;28;20448;-67
2022/04/28 09:30:42;;;;;;;5.60;5.10;;;23.40;52.40;;;;;;5092669;28;20451;-66
2022/04/28 09:33:14;;;;;;;5.47;4.93;;;22.70;50.10;;;;;;5092422;28;20446;-67
2022/04/28 09:35:49;;;;;;;4.80;4.50;;;21.80;51.30;;;;;;5092846;28;20687;-66
2022/04/28 09:38:16;;;;;;;5.80;5.30;;;21.50;51.40;;;;;;5092987;28;20476;-66
2022/04/28 09:43:33;;;;;;;5.90;5.40;;;22.50;48.20;;;;;;5092423;28;20438;-67
2022/04/28 09:46:01;;;;;;;7.80;5.60;;;21.50;49.80;;;;;;5092602;28;20456;-67
2022/04/28 09:48:30;;;;;;;6.00;5.53;;;21.00;50.90;;;;;;5092543;28;20448;-68
2022/04/28 09:51:03;;;;;;;5.30;4.80;;;22.10;50.20;;;;;;5092286;28;20864;-67
2022/04/28 09:53:33;;;;;;;5.27;4.87;;;23.10;48.70;;;;;;5092442;28;20464;-66
2022/04/28 09:56:03;;;;;;;6.03;5.47;;;22.70;47.60;;;;;;5092478;28;20459;-66
2022/04/28 09:58:30;;;;;;;5.43;5.00;;;22.20;48.00;;;;;;5092614;28;20484;-66
2022/04/28 10:01:01;;;;;;;5.90;5.33;;;23.20;51.40;;;;;;5092190;28;20942;-66
2022/04/28 10:03:30;;;;;;;5.40;5.00;;;24.60;49.20;;;;;;5091988;28;20468;-67
2022/04/28 10:05:58;;;;;;;5.10;4.60;;;26.40;44.80;;;;;;5092168;28;20452;-67
2022/04/28 10:08:25;;;;;;;5.13;4.73;;;27.40;41.40;;;;;;5092482;28;20444;-67
2022/04/28 10:10:56;;;;;;;4.93;4.53;;;28.50;39.50;;;;;;5092199;28;20467;-68
2022/04/28 10:13:23;;;;;;;4.80;4.40;;;29.30;36.80;;;;;;5092212;28;20448;-68
2022/04/28 10:15:55;;;;;;;5.80;5.40;;;30.20;34.50;;;;;;5092059;28;20475;-68
2022/04/28 10:18:27;;;;;;;5.13;4.73;;;30.60;35.00;;;;;;5092095;28;20486;-68
2022/04/28 10:21:00;;;;;;;5.60;4.70;;;31.10;33.30;;;;;;5092041;28;20990;-68
2022/04/28 10:34:32;;;;;;;5.03;4.73;;;30.20;31.90;;;;;;5091957;28;20968;-67
2022/04/28 10:37:00;;;;;;;5.20;4.90;;;30.70;33.30;;;;;;5091837;28;20477;-66
2022/04/28 10:39:35;;;;;;;4.80;4.50;;;30.40;30.10;;;;;;5092134;28;20805;-67
2022/04/28 10:42:12;;;;;;;4.50;4.20;;;29.70;32.80;;;;;;5091778;28;20459;-67
2022/04/28 10:44:42;;;;;;;4.53;4.13;;;30.00;34.00;;;;;;5092933;28;20482;-68
2022/04/28 10:47:09;;;;;;;5.47;4.80;;;31.00;32.30;;;;;;5096157;28;20448;-68
2022/04/28 10:49:40;;;;;;;5.00;4.60;;;32.00;30.80;;;;;;5095794;28;21013;-68
2022/04/28 10:52:21;;;;;;;5.20;4.80;;;31.90;30.30;;;;;;5095728;28;20444;-69
2022/04/28 10:54:52;;;;;;;4.90;4.60;;;32.00;29.60;;;;;;5095394;28;20470;-69
2022/04/28 10:57:28;;;;;;;4.83;4.57;;;30.70;30.20;;;;;;5095792;28;20493;-67
2022/04/28 10:59:55;;;;;;;5.20;4.80;;;30.40;31.90;;;;;;5095484;28;20855;-67
2022/04/28 11:02:49;;;;;;;5.00;4.70;;;28.40;31.90;;;;;;5095657;28;20446;-68
2022/04/28 11:05:49;;;;;;;5.23;4.73;;;27.30;34.80;;;;;;5095436;28;20822;-68
2022/04/28 11:08:35;;;;;;;5.13;4.83;;;26.90;37.10;;;;;;5095463;28;20448;-67
2022/04/28 11:11:13;;;;;;;5.90;5.43;;;26.50;35.50;;;;;;5095629;28;20447;-67
2022/04/28 11:13:57;;;;;;;5.30;5.00;;;26.40;37.50;;;;;;5095133;28;20489;-67
2022/04/28 11:16:25;;;;;;;5.27;4.87;;;26.20;37.90;;;;;;5095359;28;20492;-67
2022/04/28 11:18:53;;;;;;;4.93;4.63;;;25.80;37.70;;;;;;5095294;28;20841;-66
2022/04/28 11:21:22;;;;;;;5.23;4.83;;;24.90;37.80;;;;;;5095426;28;20454;-67
2022/04/28 11:23:51;;;;;;;5.27;4.87;;;23.90;39.00;;;;;;5095152;28;20495;-67
2022/04/28 11:26:19;;;;;;;5.63;5.23;;;23.00;40.90;;;;;;5095223;28;20452;-66
2022/04/28 11:28:46;;;;;;;4.93;4.53;;;22.60;42.00;;;;;;5095121;28;20508;-67
2022/04/28 11:31:16;;;;;;;5.70;5.30;;;22.40;42.50;;;;;;5094849;28;20451;-67
2022/04/28 11:33:45;;;;;;;5.53;5.03;;;22.40;42.50;;;;;;5094829;28;21031;-68
2022/04/28 11:36:26;;;;;;;5.27;4.87;;;22.50;43.90;;;;;;5095106;28;20448;-67
2022/04/28 11:38:55;;;;;;;5.53;5.03;;;22.50;42.80;;;;;;5094916;28;20475;-67
2022/04/28 11:41:31;;;;;;;5.63;5.23;;;22.60;42.40;;;;;;5094801;28;20824;-66
2022/04/28 11:44:05;;;;;;;5.67;5.20;;;22.60;42.60;;;;;;5094660;28;21122;-66
2022/04/28 11:46:31;;;;;;;4.80;4.40;;;22.80;40.50;;;;;;5095089;28;20428;-66
2022/04/28 11:48:58;;;;;;;6.40;6.00;;;22.70;42.00;;;;;;5095168;28;20449;-65
2022/04/28 11:51:26;;;;;;;5.27;4.87;;;22.60;42.40;;;;;;5094656;28;20539;-67
2022/04/28 11:53:54;;;;;;;4.73;4.43;;;22.60;42.20;;;;;;5094388;28;20466;-67
2022/04/28 11:56:25;;;;;;;4.77;4.40;;;22.80;42.80;;;;;;5093106;28;21094;-67
2022/04/28 11:58:53;;;;;;;9.20;5.03;;;22.80;42.20;;;;;;5094443;28;20516;-67
2022/04/28 12:01:22;;;;;;;5.87;5.37;;;22.50;42.00;;;;;;5094504;28;20449;-67
2022/04/28 12:03:53;;;;;;;5.23;4.80;;;22.40;42.30;;;;;;5094055;28;20464;-67
2022/04/28 12:06:21;;;;;;;4.60;4.30;;;22.30;42.40;;;;;;5094383;28;20838;-66
2022/04/28 12:08:51;;;;;;;5.10;4.70;;;22.20;42.40;;;;;;5094150;28;20450;-66
2022/04/28 12:14:23;;;;;;;5.50;5.00;;;22.00;43.30;;;;;;5095643;28;20447;-66
2022/04/28 12:19:54;;;;;;;5.70;5.30;;;21.80;43.00;;;;;;5095665;28;20412;-66
2022/04/28 12:22:25;;;;;;;5.03;4.73;;;21.80;43.40;;;;;;5095675;28;20435;-66
2022/04/28 12:24:54;;;;;;;4.67;4.37;;;21.80;43.10;;;;;;5095140;28;20483;-66
2022/04/28 12:27:21;;;;;;;4.87;4.47;;;21.80;42.50;;;;;;5095107;28;20903;-66
2022/04/28 12:29:52;;;;;;;5.00;4.60;;;21.90;43.80;;;;;;5094889;28;20444;-66
2022/04/28 12:32:20;;;;;;;5.10;4.70;;;21.90;42.10;;;;;;5095352;28;20447;-66
2022/04/28 12:34:56;;;;;;;4.60;4.30;;;22.00;42.60;;;;;;5095176;28;20455;-66
2022/04/28 12:37:25;;;;;;;4.90;4.60;;;22.00;41.50;;;;;;5095265;28;20862;-66
2022/04/28 12:39:58;;;;;;;5.37;4.23;;;21.90;42.20;;;;;;5095172;28;20444;-66
2022/04/28 12:42:29;;;;;;;5.33;4.93;;;21.80;42.80;;;;;;5095182;28;20504;-66
2022/04/28 12:44:56;;;;;;;5.10;4.60;;;21.50;42.70;;;;;;5094796;28;21028;-66
2022/04/28 12:47:35;;;;;;;4.87;4.57;;;21.40;42.40;;;;;;5095108;28;20551;-66
2022/04/28 12:50:02;;;;;;;5.17;4.77;;;21.50;43.80;;;;;;5095051;28;20930;-66
2022/04/28 12:52:33;;;;;;;5.10;4.63;;;21.60;44.50;;;;;;5094963;28;20454;-66
2022/04/28 12:55:06;;;;;;;4.90;4.50;;;21.70;43.10;;;;;;5094869;28;20467;-66
2022/04/28 12:57:33;;;;;;;4.67;4.30;;;21.90;42.10;;;;;;5094803;28;20436;-66
2022/04/28 13:00:06;;;;;;;4.87;4.47;;;21.80;41.50;;;;;;5094833;28;20436;-66
2022/04/28 13:02:34;;;;;;;4.80;4.30;;;21.60;42.10;;;;;;5094927;28;20486;-66
2022/04/28 13:05:12;;;;;;;5.10;4.70;;;21.40;42.00;;;;;;5094297;28;20464;-66
2022/04/28 13:07:39;;;;;;;4.77;4.47;;;21.30;42.60;;;;;;5094404;28;20439;-66
2022/04/28 13:10:09;;;;;;;4.30;4.00;;;21.40;42.50;;;;;;5094664;28;20479;-66
2022/04/28 13:12:36;;;;;;;4.60;4.27;;;21.50;43.00;;;;;;5094709;28;20472;-66
2022/04/28 13:15:03;;;;;;;4.77;4.37;;;21.50;43.30;;;;;;5094024;28;20460;-66
2022/04/28 13:17:30;;;;;;;4.73;4.33;;;21.50;42.90;;;;;;5094335;28;20534;-66